createdAt,value
2022-08-28T00:00:21.222Z,16.88
2022-08-28T00:05:44.653Z,16.97
2022-08-28T00:10:50.453Z,16.89
2022-08-28T00:16:00.757Z,16.80
2022-08-28T00:21:07.944Z,16.71
2022-08-28T00:26:33.958Z,16.61
2022-08-28T00:31:40.282Z,16.54
2022-08-28T00:36:46.247Z,16.48
2022-08-28T00:41:52.751Z,16.43
2022-08-28T00:47:04.395Z,16.43
2022-08-28T00:52:12.421Z,16.51
2022-08-28T00:57:23.133Z,16.58
2022-08-28T01:02:33.275Z,16.52
2022-08-28T01:07:39.914Z,16.41
2022-08-28T01:12:47.340Z,16.41
2022-08-28T01:17:58.842Z,16.35
2022-08-28T01:23:14.225Z,16.29
2022-08-28T01:28:20.256Z,16.19
2022-08-28T01:33:27.953Z,16.12
2022-08-28T01:38:34.640Z,16.08
2022-08-28T01:43:41.902Z,16.03
2022-08-28T01:48:48.193Z,15.97
2022-08-28T01:53:54.125Z,15.90
2022-08-28T01:59:01.541Z,15.88
2022-08-28T02:04:07.943Z,15.83
2022-08-28T02:09:14.768Z,15.76
2022-08-28T02:14:22.444Z,15.70
2022-08-28T02:19:28.301Z,15.67
2022-08-28T02:24:34.079Z,15.63
2022-08-28T02:29:44.248Z,15.53
2022-08-28T02:34:50.135Z,15.47
2022-08-28T02:39:58.103Z,15.43
2022-08-28T02:45:04.558Z,15.37
2022-08-28T02:50:13.162Z,15.27
2022-08-28T02:55:20.880Z,15.18
2022-08-28T03:00:27.667Z,15.18
2022-08-28T03:05:33.448Z,15.14
2022-08-28T03:10:39.289Z,15.06
2022-08-28T03:15:45.156Z,15.01
2022-08-28T03:20:51.819Z,15.08
2022-08-28T03:26:00.736Z,15.18
2022-08-28T03:31:07.519Z,15.08
2022-08-28T03:36:16.748Z,14.95
2022-08-28T03:41:25.357Z,14.91
2022-08-28T03:46:33.184Z,14.87
2022-08-28T03:51:40.931Z,14.87
2022-08-28T03:56:47.310Z,14.83
2022-08-28T04:01:53.469Z,14.82
2022-08-28T04:06:59.198Z,14.90
2022-08-28T04:12:06.899Z,14.99
2022-08-28T04:17:13.294Z,15.08
2022-08-28T04:22:19.551Z,15.23
2022-08-28T04:27:25.457Z,15.56
2022-08-28T04:32:33.530Z,15.76
2022-08-28T04:37:40.246Z,15.99
2022-08-28T04:42:47.480Z,16.69
2022-08-28T04:47:54.168Z,18.50
2022-08-28T04:53:00.094Z,20.16
2022-08-28T04:58:06.190Z,21.58
2022-08-28T05:03:13.871Z,23.31
2022-08-28T05:08:23.327Z,24.73
2022-08-28T05:13:29.393Z,25.52
2022-08-28T05:18:35.947Z,24.80
2022-08-28T05:23:42.238Z,25.66
2022-08-28T05:28:48.382Z,25.89
2022-08-28T05:33:55.204Z,27.29
2022-08-28T05:39:04.841Z,29.24
2022-08-28T05:44:13.393Z,30.93
2022-08-28T05:49:20.181Z,32.29
2022-08-28T05:54:29.011Z,33.66
2022-08-28T05:59:33.491Z,34.50
2022-08-28T06:04:40.563Z,35.52
2022-08-28T06:09:46.729Z,36.15
2022-08-28T06:14:52.879Z,36.59
2022-08-28T06:20:01.980Z,36.76
2022-08-28T06:25:15.631Z,36.72
2022-08-28T06:30:37.413Z,36.88
2022-08-28T06:35:49.304Z,37.21
2022-08-28T06:40:56.779Z,38.10
2022-08-28T06:46:02.694Z,38.82
2022-08-28T06:51:11.271Z,39.26
2022-08-28T06:56:40.558Z,39.29
2022-08-28T07:01:56.936Z,39.76
2022-08-28T07:07:31.541Z,39.98
2022-08-28T07:13:11.154Z,40.72
2022-08-28T07:18:30.034Z,41.01
2022-08-28T07:23:50.639Z,41.06
2022-08-28T07:29:30.962Z,41.35
2022-08-28T07:34:59.919Z,41.83
2022-08-28T07:40:41.342Z,42.66
2022-08-28T07:46:16.455Z,43.48
2022-08-28T07:51:32.137Z,43.80
2022-08-28T07:56:45.034Z,44.05
2022-08-28T08:02:23.704Z,44.27
2022-08-28T08:07:36.406Z,44.10
2022-08-28T08:12:47.199Z,44.87
2022-08-28T08:18:10.408Z,45.20
2022-08-28T08:23:24.141Z,45.01
2022-08-28T08:28:32.779Z,45.19
2022-08-28T08:33:44.660Z,45.38
2022-08-28T08:38:59.507Z,45.03
2022-08-28T08:44:21.459Z,45.07
2022-08-28T08:49:34.458Z,45.18
2022-08-28T08:54:44.646Z,45.74
2022-08-28T08:59:50.810Z,45.73
2022-08-28T09:05:01.694Z,45.68
2022-08-28T09:10:12.266Z,45.77
2022-08-28T09:15:27.547Z,45.92
2022-08-28T09:20:33.654Z,45.77
2022-08-28T09:25:52.816Z,44.89
2022-08-28T09:31:03.078Z,44.62
2022-08-28T09:36:31.846Z,44.72
2022-08-28T09:42:03.066Z,44.63
2022-08-28T09:47:46.509Z,44.64
2022-08-28T09:52:55.401Z,44.45
2022-08-28T09:58:01.636Z,44.58
2022-08-28T10:03:14.642Z,44.64
2022-08-28T10:08:38.499Z,44.74
2022-08-28T10:13:53.483Z,44.63
2022-08-28T10:19:10.061Z,44.05
2022-08-28T10:24:30.446Z,43.15
2022-08-28T10:29:49.473Z,42.97
2022-08-28T10:35:06.117Z,42.95
2022-08-28T10:40:14.350Z,42.72
2022-08-28T10:45:23.977Z,42.58
2022-08-28T10:50:40.831Z,42.39
2022-08-28T10:55:54.094Z,42.26
2022-08-28T11:01:06.629Z,41.92
2022-08-28T11:06:22.982Z,41.75
2022-08-28T11:11:48.658Z,41.39
2022-08-28T11:16:56.899Z,41.06
2022-08-28T11:22:10.338Z,40.86
2022-08-28T11:27:29.415Z,40.08
2022-08-28T11:32:59.792Z,39.45
2022-08-28T11:38:07.219Z,39.02
2022-08-28T11:43:34.870Z,38.99
2022-08-28T11:48:58.552Z,38.62
2022-08-28T11:54:19.852Z,38.15
2022-08-28T11:59:49.539Z,37.98
2022-08-28T12:04:55.414Z,37.41
2022-08-28T12:10:04.942Z,37.06
2022-08-28T12:15:33.483Z,36.82
2022-08-28T12:20:57.797Z,36.50
2022-08-28T12:26:05.737Z,36.66
2022-08-28T12:31:52.342Z,36.43
2022-08-28T12:37:00.152Z,36.51
2022-08-28T12:42:14.758Z,36.30
2022-08-28T12:47:23.739Z,35.49
2022-08-28T12:52:32.262Z,34.81
2022-08-28T12:57:46.722Z,34.47
2022-08-28T13:02:55.038Z,34.29
2022-08-28T13:08:03.793Z,34.57
2022-08-28T13:13:18.551Z,34.71
2022-08-28T13:18:47.425Z,34.96
2022-08-28T13:23:55.394Z,35.16
2022-08-28T13:29:05.034Z,34.49
2022-08-28T13:34:26.948Z,34.18
2022-08-28T13:39:34.541Z,34.03
2022-08-28T13:44:53.212Z,34.22
2022-08-28T13:59:44.539Z,35.05
2022-08-28T14:05:24.239Z,35.20
2022-08-28T14:10:30.827Z,34.57
2022-08-28T14:15:36.974Z,33.61
2022-08-28T14:20:42.920Z,32.92
2022-08-28T14:25:49.621Z,32.42
2022-08-28T14:30:56.914Z,31.90
2022-08-28T14:36:03.649Z,31.49
2022-08-28T14:41:11.259Z,31.12
2022-08-28T14:46:19.953Z,30.61
2022-08-28T14:51:27.302Z,29.64
2022-08-28T14:56:35.346Z,28.41
2022-08-28T15:01:43.731Z,27.60
2022-08-28T15:06:55.003Z,27.45
2022-08-28T15:12:02.775Z,27.30
2022-08-28T15:17:09.869Z,27.23
2022-08-28T15:22:20.059Z,27.10
2022-08-28T15:27:37.628Z,27.30
2022-08-28T15:32:49.952Z,27.32
2022-08-28T15:37:57.691Z,27.12
2022-08-28T15:43:05.699Z,27.07
2022-08-28T15:48:13.222Z,26.92
2022-08-28T15:53:19.355Z,26.79
2022-08-28T15:58:26.747Z,26.40
2022-08-28T16:03:35.670Z,26.00
2022-08-28T16:08:42.274Z,25.71
2022-08-28T16:13:48.671Z,25.65
2022-08-28T16:18:54.546Z,25.68
2022-08-28T16:24:01.373Z,25.65
2022-08-28T16:29:07.651Z,25.65
2022-08-28T16:34:14.040Z,25.63
2022-08-28T16:39:21.005Z,25.43
2022-08-28T16:44:27.814Z,25.17
2022-08-28T16:49:33.675Z,25.05
2022-08-28T16:54:48.512Z,25.02
2022-08-28T16:59:55.449Z,24.81
2022-08-28T17:05:01.987Z,24.60
2022-08-28T17:10:12.348Z,24.40
2022-08-28T17:15:18.568Z,24.27
2022-08-28T17:20:43.453Z,24.11
2022-08-28T17:25:49.623Z,23.84
2022-08-28T17:30:55.686Z,23.68
2022-08-28T17:36:01.691Z,23.52
2022-08-28T17:41:08.170Z,23.35
2022-08-28T17:46:14.440Z,23.24
2022-08-28T17:51:20.228Z,23.15
2022-08-28T17:56:39.410Z,23.11
2022-08-28T18:01:46.906Z,23.31
2022-08-28T18:06:54.514Z,23.46
2022-08-28T18:12:01.208Z,23.42
2022-08-28T18:17:09.182Z,23.29
2022-08-28T18:22:15.851Z,23.16
2022-08-28T18:27:22.062Z,23.00
2022-08-28T18:32:28.615Z,22.86
2022-08-28T18:37:34.593Z,22.74
2022-08-28T18:42:40.722Z,22.65
2022-08-28T18:47:47.404Z,22.55
2022-08-28T18:52:55.079Z,22.49
2022-08-28T18:58:02.797Z,22.42
2022-08-28T19:03:09.515Z,22.32
2022-08-28T19:08:15.758Z,22.28
2022-08-28T19:13:21.800Z,22.23
2022-08-28T19:18:29.954Z,22.18
2022-08-28T19:23:36.329Z,22.12
2022-08-28T19:28:43.695Z,22.05
2022-08-28T19:33:49.791Z,22.02
2022-08-28T19:38:55.701Z,21.97
2022-08-28T19:44:01.685Z,21.97
2022-08-28T19:49:10.353Z,21.89
2022-08-28T19:54:16.251Z,21.82
2022-08-28T19:59:26.942Z,21.84
2022-08-28T20:04:33.274Z,21.85
2022-08-28T20:09:39.390Z,21.80
2022-08-28T20:14:45.800Z,21.73
2022-08-28T20:19:51.874Z,21.67
2022-08-28T20:24:57.766Z,21.62
2022-08-28T20:30:10.422Z,21.60
2022-08-28T20:35:17.651Z,21.52
2022-08-28T20:40:28.395Z,21.47
2022-08-28T20:45:34.513Z,21.38
2022-08-28T20:50:40.247Z,21.34
2022-08-28T20:55:46.876Z,21.30
2022-08-28T21:00:53.496Z,21.22
2022-08-28T21:06:06.229Z,21.13
2022-08-28T21:11:12.212Z,21.05
2022-08-28T21:16:18.562Z,20.98
2022-08-28T21:21:24.806Z,20.91
2022-08-28T21:26:30.886Z,20.87
2022-08-28T21:31:37.063Z,20.93
2022-08-28T21:36:50.115Z,20.95
2022-08-28T21:41:57.300Z,20.92
2022-08-28T21:47:03.109Z,20.86
2022-08-28T21:52:09.092Z,20.85
2022-08-28T21:57:15.926Z,20.86
2022-08-28T22:02:21.967Z,20.86
2022-08-28T22:07:27.899Z,20.87
2022-08-28T22:12:34.301Z,20.91
2022-08-28T22:17:40.418Z,20.96
2022-08-28T22:23:05.341Z,21.02
2022-08-28T22:28:11.750Z,21.04
2022-08-28T22:33:17.801Z,21.02
2022-08-28T22:38:25.264Z,20.96
2022-08-28T22:43:31.462Z,20.94
2022-08-28T22:48:37.866Z,20.95
2022-08-28T22:53:44.917Z,20.90
2022-08-28T22:58:51.053Z,20.83
2022-08-28T23:03:57.818Z,20.76
2022-08-28T23:09:03.897Z,20.71
2022-08-28T23:14:10.024Z,20.63
2022-08-28T23:19:16.604Z,20.61
2022-08-28T23:24:22.754Z,20.57
2022-08-28T23:29:29.423Z,20.48
2022-08-28T23:34:36.566Z,20.42
2022-08-28T23:39:43.739Z,20.34
2022-08-28T23:44:49.675Z,20.27
2022-08-28T23:49:55.878Z,20.24
2022-08-28T23:55:02.132Z,20.18
